sensor_id;sensor_type;location;lat;lon;timestamp;temperature;humidity
69546;SHT31;56766;52.260;20.746;2022-08-19T00:01:57;21.42;77.57
69546;SHT31;56766;52.260;20.746;2022-08-19T00:04:28;21.41;77.56
69546;SHT31;56766;52.260;20.746;2022-08-19T00:06:59;21.39;77.52
69546;SHT31;56766;52.260;20.746;2022-08-19T00:09:27;21.34;77.71
69546;SHT31;56766;52.260;20.746;2022-08-19T00:11:56;21.30;77.89
69546;SHT31;56766;52.260;20.746;2022-08-19T00:14:27;21.25;77.96
69546;SHT31;56766;52.260;20.746;2022-08-19T00:16:57;21.23;77.96
69546;SHT31;56766;52.260;20.746;2022-08-19T00:19:25;21.21;77.97
69546;SHT31;56766;52.260;20.746;2022-08-19T00:21:52;21.17;78.02
69546;SHT31;56766;52.260;20.746;2022-08-19T00:24:22;21.14;78.09
69546;SHT31;56766;52.260;20.746;2022-08-19T00:26:50;21.12;78.03
69546;SHT31;56766;52.260;20.746;2022-08-19T00:29:20;21.13;78.08
69546;SHT31;56766;52.260;20.746;2022-08-19T00:31:48;21.11;78.22
69546;SHT31;56766;52.260;20.746;2022-08-19T00:34:16;21.11;78.28
69546;SHT31;56766;52.260;20.746;2022-08-19T00:36:44;21.09;78.13
69546;SHT31;56766;52.260;20.746;2022-08-19T00:39:13;21.04;78.20
69546;SHT31;56766;52.260;20.746;2022-08-19T00:41:43;21.01;78.30
69546;SHT31;56766;52.260;20.746;2022-08-19T00:46:48;21.01;78.23
69546;SHT31;56766;52.260;20.746;2022-08-19T00:52:07;20.99;78.14
69546;SHT31;56766;52.260;20.746;2022-08-19T00:54:39;20.95;78.29
69546;SHT31;56766;52.260;20.746;2022-08-19T00:57:12;20.88;78.53
69546;SHT31;56766;52.260;20.746;2022-08-19T00:59:46;20.84;78.54
69546;SHT31;56766;52.260;20.746;2022-08-19T01:02:19;20.82;78.67
69546;SHT31;56766;52.260;20.746;2022-08-19T01:04:46;20.81;78.75
69546;SHT31;56766;52.260;20.746;2022-08-19T01:07:13;20.81;78.70
69546;SHT31;56766;52.260;20.746;2022-08-19T01:09:39;20.81;78.67
69546;SHT31;56766;52.260;20.746;2022-08-19T01:12:08;20.80;78.72
69546;SHT31;56766;52.260;20.746;2022-08-19T01:14:39;20.83;78.74
69546;SHT31;56766;52.260;20.746;2022-08-19T01:17:10;20.84;78.76
69546;SHT31;56766;52.260;20.746;2022-08-19T01:19:41;20.86;78.64
69546;SHT31;56766;52.260;20.746;2022-08-19T01:24:48;20.87;78.53
69546;SHT31;56766;52.260;20.746;2022-08-19T01:27:16;20.85;78.39
69546;SHT31;56766;52.260;20.746;2022-08-19T01:29:45;20.83;78.60
69546;SHT31;56766;52.260;20.746;2022-08-19T01:32:14;20.82;78.60
69546;SHT31;56766;52.260;20.746;2022-08-19T01:34:42;20.79;78.63
69546;SHT31;56766;52.260;20.746;2022-08-19T01:37:14;20.77;78.62
69546;SHT31;56766;52.260;20.746;2022-08-19T01:39:42;20.77;78.69
69546;SHT31;56766;52.260;20.746;2022-08-19T01:42:09;20.76;78.75
69546;SHT31;56766;52.260;20.746;2022-08-19T01:44:39;20.73;78.82
69546;SHT31;56766;52.260;20.746;2022-08-19T01:47:09;20.71;78.94
69546;SHT31;56766;52.260;20.746;2022-08-19T01:49:37;20.71;78.83
69546;SHT31;56766;52.260;20.746;2022-08-19T01:52:05;20.71;78.99
69546;SHT31;56766;52.260;20.746;2022-08-19T01:54:33;20.69;79.04
69546;SHT31;56766;52.260;20.746;2022-08-19T01:57:06;20.64;79.23
69546;SHT31;56766;52.260;20.746;2022-08-19T01:59:40;20.61;79.26
69546;SHT31;56766;52.260;20.746;2022-08-19T02:02:08;20.58;79.33
69546;SHT31;56766;52.260;20.746;2022-08-19T02:04:35;20.57;79.32
69546;SHT31;56766;52.260;20.746;2022-08-19T02:07:05;20.58;79.34
69546;SHT31;56766;52.260;20.746;2022-08-19T02:09:34;20.52;79.57
69546;SHT31;56766;52.260;20.746;2022-08-19T02:12:01;20.45;79.80
69546;SHT31;56766;52.260;20.746;2022-08-19T02:14:29;20.43;79.89
69546;SHT31;56766;52.260;20.746;2022-08-19T02:16:56;20.41;80.01
69546;SHT31;56766;52.260;20.746;2022-08-19T02:19:23;20.38;80.13
69546;SHT31;56766;52.260;20.746;2022-08-19T02:21:49;20.34;80.24
69546;SHT31;56766;52.260;20.746;2022-08-19T02:24:16;20.32;80.26
69546;SHT31;56766;52.260;20.746;2022-08-19T02:26:43;20.31;80.19
69546;SHT31;56766;52.260;20.746;2022-08-19T02:29:10;20.28;80.20
69546;SHT31;56766;52.260;20.746;2022-08-19T02:31:37;20.23;80.28
69546;SHT31;56766;52.260;20.746;2022-08-19T02:34:03;20.22;80.25
69546;SHT31;56766;52.260;20.746;2022-08-19T02:36:30;20.21;80.24
69546;SHT31;56766;52.260;20.746;2022-08-19T02:38:57;20.17;80.34
69546;SHT31;56766;52.260;20.746;2022-08-19T02:41:27;20.17;80.34
69546;SHT31;56766;52.260;20.746;2022-08-19T02:43:59;20.14;80.41
69546;SHT31;56766;52.260;20.746;2022-08-19T02:46:30;20.13;80.51
69546;SHT31;56766;52.260;20.746;2022-08-19T02:49:05;20.17;80.53
69546;SHT31;56766;52.260;20.746;2022-08-19T02:51:36;20.19;80.56
69546;SHT31;56766;52.260;20.746;2022-08-19T02:54:10;20.22;80.60
69546;SHT31;56766;52.260;20.746;2022-08-19T02:56:41;20.24;80.58
69546;SHT31;56766;52.260;20.746;2022-08-19T02:59:09;20.25;80.54
69546;SHT31;56766;52.260;20.746;2022-08-19T03:01:40;20.23;80.63
69546;SHT31;56766;52.260;20.746;2022-08-19T03:04:10;20.22;80.70
69546;SHT31;56766;52.260;20.746;2022-08-19T03:06:42;20.24;80.65
69546;SHT31;56766;52.260;20.746;2022-08-19T03:09:11;20.26;80.46
69546;SHT31;56766;52.260;20.746;2022-08-19T03:11:39;20.26;80.36
69546;SHT31;56766;52.260;20.746;2022-08-19T03:14:08;20.29;80.35
69546;SHT31;56766;52.260;20.746;2022-08-19T03:16:48;20.30;80.46
69546;SHT31;56766;52.260;20.746;2022-08-19T03:19:19;20.31;80.65
69546;SHT31;56766;52.260;20.746;2022-08-19T03:21:48;20.34;80.71
69546;SHT31;56766;52.260;20.746;2022-08-19T03:24:16;20.40;80.61
69546;SHT31;56766;52.260;20.746;2022-08-19T03:26:48;20.48;80.65
69546;SHT31;56766;52.260;20.746;2022-08-19T03:29:18;20.51;80.66
69546;SHT31;56766;52.260;20.746;2022-08-19T03:31:46;20.54;80.61
69546;SHT31;56766;52.260;20.746;2022-08-19T03:34:16;20.57;80.53
69546;SHT31;56766;52.260;20.746;2022-08-19T03:36:47;20.63;80.44
69546;SHT31;56766;52.260;20.746;2022-08-19T03:39:16;20.68;80.23
69546;SHT31;56766;52.260;20.746;2022-08-19T03:41:46;20.72;80.30
69546;SHT31;56766;52.260;20.746;2022-08-19T03:44:20;20.75;80.21
69546;SHT31;56766;52.260;20.746;2022-08-19T03:46:54;20.75;80.28
69546;SHT31;56766;52.260;20.746;2022-08-19T03:49:27;20.80;80.18
69546;SHT31;56766;52.260;20.746;2022-08-19T03:51:57;20.89;80.07
69546;SHT31;56766;52.260;20.746;2022-08-19T03:54:27;20.98;79.91
69546;SHT31;56766;52.260;20.746;2022-08-19T03:56:56;21.04;79.70
69546;SHT31;56766;52.260;20.746;2022-08-19T03:59:30;21.07;79.56
69546;SHT31;56766;52.260;20.746;2022-08-19T04:02:03;21.13;79.51
69546;SHT31;56766;52.260;20.746;2022-08-19T04:04:39;21.17;79.52
69546;SHT31;56766;52.260;20.746;2022-08-19T04:07:09;21.22;79.44
69546;SHT31;56766;52.260;20.746;2022-08-19T04:09:39;21.28;79.37
69546;SHT31;56766;52.260;20.746;2022-08-19T04:12:07;21.34;79.22
69546;SHT31;56766;52.260;20.746;2022-08-19T04:14:34;21.40;79.15
69546;SHT31;56766;52.260;20.746;2022-08-19T04:17:03;21.46;78.98
69546;SHT31;56766;52.260;20.746;2022-08-19T04:19:33;21.52;78.85
69546;SHT31;56766;52.260;20.746;2022-08-19T04:22:02;21.60;78.74
69546;SHT31;56766;52.260;20.746;2022-08-19T04:24:31;21.68;78.60
69546;SHT31;56766;52.260;20.746;2022-08-19T04:27:01;21.75;78.57
69546;SHT31;56766;52.260;20.746;2022-08-19T04:29:29;21.84;78.46
69546;SHT31;56766;52.260;20.746;2022-08-19T04:31:57;21.92;78.22
69546;SHT31;56766;52.260;20.746;2022-08-19T04:34:28;22.00;78.14
69546;SHT31;56766;52.260;20.746;2022-08-19T04:36:57;22.07;77.97
69546;SHT31;56766;52.260;20.746;2022-08-19T04:39:30;22.15;77.85
69546;SHT31;56766;52.260;20.746;2022-08-19T04:42:17;22.23;77.66
69546;SHT31;56766;52.260;20.746;2022-08-19T04:45:08;22.30;77.63
69546;SHT31;56766;52.260;20.746;2022-08-19T04:47:38;22.35;77.51
69546;SHT31;56766;52.260;20.746;2022-08-19T04:50:07;22.42;77.42
69546;SHT31;56766;52.260;20.746;2022-08-19T04:52:40;22.53;77.27
69546;SHT31;56766;52.260;20.746;2022-08-19T04:55:11;22.59;77.10
69546;SHT31;56766;52.260;20.746;2022-08-19T04:57:39;22.60;77.12
69546;SHT31;56766;52.260;20.746;2022-08-19T05:00:08;22.62;76.97
69546;SHT31;56766;52.260;20.746;2022-08-19T05:02:37;22.63;76.98
69546;SHT31;56766;52.260;20.746;2022-08-19T05:05:05;22.68;76.97
69546;SHT31;56766;52.260;20.746;2022-08-19T05:07:32;22.73;77.01
69546;SHT31;56766;52.260;20.746;2022-08-19T05:09:59;22.78;76.93
69546;SHT31;56766;52.260;20.746;2022-08-19T05:12:26;22.84;76.77
69546;SHT31;56766;52.260;20.746;2022-08-19T05:14:56;22.91;76.72
69546;SHT31;56766;52.260;20.746;2022-08-19T05:17:26;23.01;76.52
69546;SHT31;56766;52.260;20.746;2022-08-19T05:19:54;23.09;76.31
69546;SHT31;56766;52.260;20.746;2022-08-19T05:22:42;23.33;76.28
69546;SHT31;56766;52.260;20.746;2022-08-19T05:25:18;23.64;75.82
69546;SHT31;56766;52.260;20.746;2022-08-19T05:27:46;23.94;75.37
69546;SHT31;56766;52.260;20.746;2022-08-19T05:30:15;24.22;75.01
69546;SHT31;56766;52.260;20.746;2022-08-19T05:32:43;24.43;74.71
69546;SHT31;56766;52.260;20.746;2022-08-19T05:35:11;24.63;73.82
69546;SHT31;56766;52.260;20.746;2022-08-19T05:37:38;24.79;73.45
69546;SHT31;56766;52.260;20.746;2022-08-19T05:40:07;24.96;73.13
69546;SHT31;56766;52.260;20.746;2022-08-19T05:42:35;25.10;72.69
69546;SHT31;56766;52.260;20.746;2022-08-19T05:45:03;25.21;72.35
69546;SHT31;56766;52.260;20.746;2022-08-19T05:47:30;25.32;72.16
69546;SHT31;56766;52.260;20.746;2022-08-19T05:49:58;25.44;71.92
69546;SHT31;56766;52.260;20.746;2022-08-19T05:52:25;25.52;71.83
69546;SHT31;56766;52.260;20.746;2022-08-19T05:54:53;25.64;71.72
69546;SHT31;56766;52.260;20.746;2022-08-19T05:57:22;25.74;71.17
69546;SHT31;56766;52.260;20.746;2022-08-19T05:59:50;25.79;70.27
69546;SHT31;56766;52.260;20.746;2022-08-19T06:02:18;25.85;70.50
69546;SHT31;56766;52.260;20.746;2022-08-19T06:04:45;25.94;69.51
69546;SHT31;56766;52.260;20.746;2022-08-19T06:07:13;26.02;69.11
69546;SHT31;56766;52.260;20.746;2022-08-19T06:09:41;26.05;69.30
69546;SHT31;56766;52.260;20.746;2022-08-19T06:12:07;26.10;69.03
69546;SHT31;56766;52.260;20.746;2022-08-19T06:14:36;26.16;68.75
69546;SHT31;56766;52.260;20.746;2022-08-19T06:17:04;26.24;68.91
69546;SHT31;56766;52.260;20.746;2022-08-19T06:19:31;26.31;68.66
69546;SHT31;56766;52.260;20.746;2022-08-19T06:22:00;26.35;68.26
69546;SHT31;56766;52.260;20.746;2022-08-19T06:24:29;26.37;68.02
69546;SHT31;56766;52.260;20.746;2022-08-19T06:26:57;26.38;67.75
69546;SHT31;56766;52.260;20.746;2022-08-19T06:29:26;26.42;68.18
69546;SHT31;56766;52.260;20.746;2022-08-19T06:31:56;26.49;67.92
69546;SHT31;56766;52.260;20.746;2022-08-19T06:34:26;26.56;67.66
69546;SHT31;56766;52.260;20.746;2022-08-19T06:36:56;26.65;67.47
69546;SHT31;56766;52.260;20.746;2022-08-19T06:39:34;26.74;66.86
69546;SHT31;56766;52.260;20.746;2022-08-19T06:42:06;26.80;66.63
69546;SHT31;56766;52.260;20.746;2022-08-19T06:44:37;26.72;66.11
69546;SHT31;56766;52.260;20.746;2022-08-19T06:47:08;26.59;65.72
69546;SHT31;56766;52.260;20.746;2022-08-19T06:49:37;26.49;65.63
69546;SHT31;56766;52.260;20.746;2022-08-19T06:52:05;26.51;65.94
69546;SHT31;56766;52.260;20.746;2022-08-19T06:54:32;26.55;66.14
69546;SHT31;56766;52.260;20.746;2022-08-19T06:57:01;26.50;65.91
69546;SHT31;56766;52.260;20.746;2022-08-19T06:59:30;26.45;66.02
69546;SHT31;56766;52.260;20.746;2022-08-19T07:02:03;26.50;66.05
69546;SHT31;56766;52.260;20.746;2022-08-19T07:04:37;26.63;66.06
69546;SHT31;56766;52.260;20.746;2022-08-19T07:07:10;26.78;65.93
69546;SHT31;56766;52.260;20.746;2022-08-19T07:09:42;26.91;65.61
69546;SHT31;56766;52.260;20.746;2022-08-19T07:12:13;26.99;64.88
69546;SHT31;56766;52.260;20.746;2022-08-19T07:14:43;27.02;64.78
69546;SHT31;56766;52.260;20.746;2022-08-19T07:17:12;27.08;64.87
69546;SHT31;56766;52.260;20.746;2022-08-19T07:19:39;27.14;64.45
69546;SHT31;56766;52.260;20.746;2022-08-19T07:22:09;27.19;64.58
69546;SHT31;56766;52.260;20.746;2022-08-19T07:24:37;27.26;63.91
69546;SHT31;56766;52.260;20.746;2022-08-19T07:27:06;27.32;63.79
69546;SHT31;56766;52.260;20.746;2022-08-19T07:29:35;27.35;63.68
69546;SHT31;56766;52.260;20.746;2022-08-19T07:32:04;27.41;63.60
69546;SHT31;56766;52.260;20.746;2022-08-19T07:34:33;27.46;63.56
69546;SHT31;56766;52.260;20.746;2022-08-19T07:37:05;27.50;63.81
69546;SHT31;56766;52.260;20.746;2022-08-19T07:39:35;27.60;64.06
69546;SHT31;56766;52.260;20.746;2022-08-19T07:42:08;27.69;63.81
69546;SHT31;56766;52.260;20.746;2022-08-19T07:44:37;27.78;63.18
69546;SHT31;56766;52.260;20.746;2022-08-19T07:47:05;27.81;62.98
69546;SHT31;56766;52.260;20.746;2022-08-19T07:49:33;27.88;62.83
69546;SHT31;56766;52.260;20.746;2022-08-19T07:52:05;27.98;62.41
69546;SHT31;56766;52.260;20.746;2022-08-19T07:54:36;28.06;62.43
69546;SHT31;56766;52.260;20.746;2022-08-19T07:57:05;28.15;62.06
69546;SHT31;56766;52.260;20.746;2022-08-19T07:59:34;28.25;62.09
69546;SHT31;56766;52.260;20.746;2022-08-19T08:02:01;28.41;62.12
69546;SHT31;56766;52.260;20.746;2022-08-19T08:04:31;28.55;61.17
69546;SHT31;56766;52.260;20.746;2022-08-19T08:07:17;28.73;61.36
69546;SHT31;56766;52.260;20.746;2022-08-19T08:10:05;28.95;61.50
69546;SHT31;56766;52.260;20.746;2022-08-19T08:12:38;29.14;60.77
69546;SHT31;56766;52.260;20.746;2022-08-19T08:15:13;29.29;60.08
69546;SHT31;56766;52.260;20.746;2022-08-19T08:17:42;29.40;59.71
69546;SHT31;56766;52.260;20.746;2022-08-19T08:20:10;29.49;59.72
69546;SHT31;56766;52.260;20.746;2022-08-19T08:22:44;29.62;59.54
69546;SHT31;56766;52.260;20.746;2022-08-19T08:25:30;29.71;59.45
69546;SHT31;56766;52.260;20.746;2022-08-19T08:27:57;29.81;59.27
69546;SHT31;56766;52.260;20.746;2022-08-19T08:30:28;29.88;58.72
69546;SHT31;56766;52.260;20.746;2022-08-19T08:32:59;29.89;58.56
69546;SHT31;56766;52.260;20.746;2022-08-19T08:35:25;29.95;58.70
69546;SHT31;56766;52.260;20.746;2022-08-19T08:37:54;30.07;58.99
69546;SHT31;56766;52.260;20.746;2022-08-19T08:43:11;30.17;57.67
69546;SHT31;56766;52.260;20.746;2022-08-19T08:51:37;30.35;57.67
69546;SHT31;56766;52.260;20.746;2022-08-19T08:54:12;30.41;57.81
69546;SHT31;56766;52.260;20.746;2022-08-19T08:56:43;30.46;57.18
69546;SHT31;56766;52.260;20.746;2022-08-19T08:59:30;30.48;56.90
69546;SHT31;56766;52.260;20.746;2022-08-19T09:02:01;30.51;57.09
69546;SHT31;56766;52.260;20.746;2022-08-19T09:04:28;30.57;57.18
69546;SHT31;56766;52.260;20.746;2022-08-19T09:09:50;30.69;56.93
69546;SHT31;56766;52.260;20.746;2022-08-19T09:12:25;30.81;56.85
69546;SHT31;56766;52.260;20.746;2022-08-19T09:15:12;30.87;56.09
69546;SHT31;56766;52.260;20.746;2022-08-19T09:17:40;30.92;56.07
69546;SHT31;56766;52.260;20.746;2022-08-19T09:22:38;31.14;56.11
69546;SHT31;56766;52.260;20.746;2022-08-19T09:25:08;31.26;55.94
69546;SHT31;56766;52.260;20.746;2022-08-19T09:27:39;31.33;55.55
69546;SHT31;56766;52.260;20.746;2022-08-19T09:30:11;31.39;55.40
69546;SHT31;56766;52.260;20.746;2022-08-19T09:32:51;31.49;55.27
69546;SHT31;56766;52.260;20.746;2022-08-19T09:35:24;31.61;55.41
69546;SHT31;56766;52.260;20.746;2022-08-19T09:37:56;31.77;55.43
69546;SHT31;56766;52.260;20.746;2022-08-19T09:40:24;31.94;54.58
69546;SHT31;56766;52.260;20.746;2022-08-19T09:42:52;32.04;52.84
69546;SHT31;56766;52.260;20.746;2022-08-19T09:45:21;32.13;52.33
69546;SHT31;56766;52.260;20.746;2022-08-19T09:47:52;32.21;51.99
69546;SHT31;56766;52.260;20.746;2022-08-19T09:50:22;32.29;51.75
69546;SHT31;56766;52.260;20.746;2022-08-19T09:52:50;32.37;51.72
69546;SHT31;56766;52.260;20.746;2022-08-19T09:55:20;32.51;51.71
69546;SHT31;56766;52.260;20.746;2022-08-19T09:57:46;32.58;51.39
69546;SHT31;56766;52.260;20.746;2022-08-19T10:00:13;32.61;51.33
69546;SHT31;56766;52.260;20.746;2022-08-19T10:02:40;32.61;51.18
69546;SHT31;56766;52.260;20.746;2022-08-19T10:05:07;32.60;51.66
69546;SHT31;56766;52.260;20.746;2022-08-19T10:07:53;32.72;51.57
69546;SHT31;56766;52.260;20.746;2022-08-19T10:10:20;32.78;50.90
69546;SHT31;56766;52.260;20.746;2022-08-19T10:12:47;32.82;50.60
69546;SHT31;56766;52.260;20.746;2022-08-19T10:15:14;32.85;50.26
69546;SHT31;56766;52.260;20.746;2022-08-19T10:17:41;32.89;50.41
69546;SHT31;56766;52.260;20.746;2022-08-19T10:20:08;33.01;50.21
69546;SHT31;56766;52.260;20.746;2022-08-19T10:22:35;33.07;49.61
69546;SHT31;56766;52.260;20.746;2022-08-19T10:25:05;33.09;49.00
69546;SHT31;56766;52.260;20.746;2022-08-19T10:27:32;33.11;49.68
69546;SHT31;56766;52.260;20.746;2022-08-19T10:29:59;33.17;49.84
69546;SHT31;56766;52.260;20.746;2022-08-19T10:32:25;33.25;49.39
69546;SHT31;56766;52.260;20.746;2022-08-19T10:34:52;33.31;49.11
69546;SHT31;56766;52.260;20.746;2022-08-19T10:37:20;33.33;48.04
69546;SHT31;56766;52.260;20.746;2022-08-19T10:39:46;33.30;47.94
69546;SHT31;56766;52.260;20.746;2022-08-19T10:42:16;33.29;47.50
69546;SHT31;56766;52.260;20.746;2022-08-19T10:44:44;33.27;47.73
69546;SHT31;56766;52.260;20.746;2022-08-19T10:47:13;33.28;47.94
69546;SHT31;56766;52.260;20.746;2022-08-19T10:49:40;33.31;48.21
69546;SHT31;56766;52.260;20.746;2022-08-19T10:52:27;33.36;47.48
69546;SHT31;56766;52.260;20.746;2022-08-19T10:55:01;33.41;46.46
69546;SHT31;56766;52.260;20.746;2022-08-19T10:57:47;33.51;47.50
69546;SHT31;56766;52.260;20.746;2022-08-19T11:00:14;33.67;47.36
69546;SHT31;56766;52.260;20.746;2022-08-19T11:02:42;33.77;46.81
69546;SHT31;56766;52.260;20.746;2022-08-19T11:05:10;33.77;45.84
69546;SHT31;56766;52.260;20.746;2022-08-19T11:07:41;33.71;46.00
69546;SHT31;56766;52.260;20.746;2022-08-19T11:10:10;33.70;46.15
69546;SHT31;56766;52.260;20.746;2022-08-19T11:12:39;33.73;46.67
69546;SHT31;56766;52.260;20.746;2022-08-19T11:15:09;33.79;46.66
69546;SHT31;56766;52.260;20.746;2022-08-19T11:17:41;33.88;46.52
69546;SHT31;56766;52.260;20.746;2022-08-19T11:20:11;33.95;46.58
69546;SHT31;56766;52.260;20.746;2022-08-19T11:22:41;34.03;46.15
69546;SHT31;56766;52.260;20.746;2022-08-19T11:25:10;34.03;45.63
69546;SHT31;56766;52.260;20.746;2022-08-19T11:27:39;34.00;45.72
69546;SHT31;56766;52.260;20.746;2022-08-19T11:30:11;33.96;46.03
69546;SHT31;56766;52.260;20.746;2022-08-19T11:32:42;33.97;45.88
69546;SHT31;56766;52.260;20.746;2022-08-19T11:35:09;33.96;45.53
69546;SHT31;56766;52.260;20.746;2022-08-19T11:37:37;33.95;44.65
69546;SHT31;56766;52.260;20.746;2022-08-19T11:40:06;33.96;45.35
69546;SHT31;56766;52.260;20.746;2022-08-19T11:42:33;33.97;44.99
69546;SHT31;56766;52.260;20.746;2022-08-19T11:45:19;33.96;44.84
69546;SHT31;56766;52.260;20.746;2022-08-19T11:47:46;33.93;44.31
69546;SHT31;56766;52.260;20.746;2022-08-19T11:50:15;33.90;44.47
69546;SHT31;56766;52.260;20.746;2022-08-19T11:52:43;33.95;44.93
69546;SHT31;56766;52.260;20.746;2022-08-19T11:55:13;34.03;44.72
69546;SHT31;56766;52.260;20.746;2022-08-19T11:57:40;34.03;44.77
69546;SHT31;56766;52.260;20.746;2022-08-19T12:00:09;34.04;44.49
69546;SHT31;56766;52.260;20.746;2022-08-19T12:02:39;34.07;45.00
69546;SHT31;56766;52.260;20.746;2022-08-19T12:05:07;34.14;44.87
69546;SHT31;56766;52.260;20.746;2022-08-19T12:07:34;34.12;44.68
69546;SHT31;56766;52.260;20.746;2022-08-19T12:10:02;34.14;45.19
69546;SHT31;56766;52.260;20.746;2022-08-19T12:12:29;34.20;44.92
69546;SHT31;56766;52.260;20.746;2022-08-19T12:14:55;34.19;44.87
69546;SHT31;56766;52.260;20.746;2022-08-19T12:17:28;34.21;44.86
69546;SHT31;56766;52.260;20.746;2022-08-19T12:19:55;34.21;45.15
69546;SHT31;56766;52.260;20.746;2022-08-19T12:22:22;34.26;45.60
69546;SHT31;56766;52.260;20.746;2022-08-19T12:24:49;34.29;45.10
69546;SHT31;56766;52.260;20.746;2022-08-19T12:27:18;34.20;44.35
69546;SHT31;56766;52.260;20.746;2022-08-19T12:29:45;34.17;44.93
69546;SHT31;56766;52.260;20.746;2022-08-19T12:32:12;34.14;44.46
69546;SHT31;56766;52.260;20.746;2022-08-19T12:34:39;34.06;44.43
69546;SHT31;56766;52.260;20.746;2022-08-19T12:37:07;34.01;44.78
69546;SHT31;56766;52.260;20.746;2022-08-19T12:39:36;34.01;45.34
69546;SHT31;56766;52.260;20.746;2022-08-19T12:42:05;34.07;45.75
69546;SHT31;56766;52.260;20.746;2022-08-19T12:44:33;34.13;45.69
69546;SHT31;56766;52.260;20.746;2022-08-19T12:47:01;34.14;44.79
69546;SHT31;56766;52.260;20.746;2022-08-19T12:49:30;34.13;45.47
69546;SHT31;56766;52.260;20.746;2022-08-19T12:52:00;34.13;45.11
69546;SHT31;56766;52.260;20.746;2022-08-19T12:54:27;34.08;44.50
69546;SHT31;56766;52.260;20.746;2022-08-19T12:56:58;33.96;44.13
69546;SHT31;56766;52.260;20.746;2022-08-19T12:59:26;33.83;44.38
69546;SHT31;56766;52.260;20.746;2022-08-19T13:01:53;33.77;44.66
69546;SHT31;56766;52.260;20.746;2022-08-19T13:04:20;33.74;44.52
69546;SHT31;56766;52.260;20.746;2022-08-19T13:06:47;33.69;44.08
69546;SHT31;56766;52.260;20.746;2022-08-19T13:09:13;33.63;43.58
69546;SHT31;56766;52.260;20.746;2022-08-19T13:11:40;33.54;43.54
69546;SHT31;56766;52.260;20.746;2022-08-19T13:14:07;33.46;44.19
69546;SHT31;56766;52.260;20.746;2022-08-19T13:16:35;33.42;44.56
69546;SHT31;56766;52.260;20.746;2022-08-19T13:19:02;33.36;44.62
69546;SHT31;56766;52.260;20.746;2022-08-19T13:21:31;33.31;44.94
69546;SHT31;56766;52.260;20.746;2022-08-19T13:23:57;33.25;44.84
69546;SHT31;56766;52.260;20.746;2022-08-19T13:26:24;33.21;45.61
69546;SHT31;56766;52.260;20.746;2022-08-19T13:28:51;33.23;46.38
69546;SHT31;56766;52.260;20.746;2022-08-19T13:31:40;33.22;45.20
69546;SHT31;56766;52.260;20.746;2022-08-19T13:34:32;33.09;45.33
69546;SHT31;56766;52.260;20.746;2022-08-19T13:37:03;33.05;45.86
69546;SHT31;56766;52.260;20.746;2022-08-19T13:39:32;33.04;45.82
69546;SHT31;56766;52.260;20.746;2022-08-19T13:41:59;32.99;45.63
69546;SHT31;56766;52.260;20.746;2022-08-19T13:44:28;32.97;45.97
69546;SHT31;56766;52.260;20.746;2022-08-19T13:47:03;32.98;46.31
69546;SHT31;56766;52.260;20.746;2022-08-19T13:49:35;33.06;45.84
69546;SHT31;56766;52.260;20.746;2022-08-19T13:52:04;33.12;45.74
69546;SHT31;56766;52.260;20.746;2022-08-19T13:54:32;33.10;45.21
69546;SHT31;56766;52.260;20.746;2022-08-19T13:56:58;33.04;45.51
69546;SHT31;56766;52.260;20.746;2022-08-19T13:59:25;33.00;45.75
69546;SHT31;56766;52.260;20.746;2022-08-19T14:01:52;33.00;46.11
69546;SHT31;56766;52.260;20.746;2022-08-19T14:04:19;33.03;46.12
69546;SHT31;56766;52.260;20.746;2022-08-19T14:06:46;33.08;46.80
69546;SHT31;56766;52.260;20.746;2022-08-19T14:09:12;33.10;45.37
69546;SHT31;56766;52.260;20.746;2022-08-19T14:11:39;33.04;44.98
69546;SHT31;56766;52.260;20.746;2022-08-19T14:14:06;32.96;44.87
69546;SHT31;56766;52.260;20.746;2022-08-19T14:16:32;32.91;44.84
69546;SHT31;56766;52.260;20.746;2022-08-19T14:18:59;32.88;44.73
69546;SHT31;56766;52.260;20.746;2022-08-19T14:21:26;32.85;45.06
69546;SHT31;56766;52.260;20.746;2022-08-19T14:23:53;32.82;44.39
69546;SHT31;56766;52.260;20.746;2022-08-19T14:26:21;32.77;44.48
69546;SHT31;56766;52.260;20.746;2022-08-19T14:28:49;32.76;45.19
69546;SHT31;56766;52.260;20.746;2022-08-19T14:31:17;32.76;45.31
69546;SHT31;56766;52.260;20.746;2022-08-19T14:33:48;32.70;45.37
69546;SHT31;56766;52.260;20.746;2022-08-19T14:36:18;32.66;45.54
69546;SHT31;56766;52.260;20.746;2022-08-19T14:38:47;32.64;45.32
69546;SHT31;56766;52.260;20.746;2022-08-19T14:41:24;32.61;44.49
69546;SHT31;56766;52.260;20.746;2022-08-19T14:43:54;32.56;44.70
69546;SHT31;56766;52.260;20.746;2022-08-19T14:46:23;32.53;44.88
69546;SHT31;56766;52.260;20.746;2022-08-19T14:48:53;32.52;45.07
69546;SHT31;56766;52.260;20.746;2022-08-19T14:51:23;32.49;45.23
69546;SHT31;56766;52.260;20.746;2022-08-19T14:53:53;32.48;44.77
69546;SHT31;56766;52.260;20.746;2022-08-19T14:56:25;32.46;44.45
69546;SHT31;56766;52.260;20.746;2022-08-19T14:58:55;32.46;44.53
69546;SHT31;56766;52.260;20.746;2022-08-19T15:01:26;32.44;45.19
69546;SHT31;56766;52.260;20.746;2022-08-19T15:03:53;32.41;44.63
69546;SHT31;56766;52.260;20.746;2022-08-19T15:06:26;32.36;44.84
69546;SHT31;56766;52.260;20.746;2022-08-19T15:08:53;32.31;44.78
69546;SHT31;56766;52.260;20.746;2022-08-19T15:11:23;32.29;45.24
69546;SHT31;56766;52.260;20.746;2022-08-19T15:13:55;32.25;45.29
69546;SHT31;56766;52.260;20.746;2022-08-19T15:16:23;32.20;45.85
69546;SHT31;56766;52.260;20.746;2022-08-19T15:18:55;32.15;46.09
69546;SHT31;56766;52.260;20.746;2022-08-19T15:21:25;32.06;46.07
69546;SHT31;56766;52.260;20.746;2022-08-19T15:23:54;31.98;46.06
69546;SHT31;56766;52.260;20.746;2022-08-19T15:26:22;31.91;45.97
69546;SHT31;56766;52.260;20.746;2022-08-19T15:28:49;31.84;46.35
69546;SHT31;56766;52.260;20.746;2022-08-19T15:31:18;31.79;46.37
69546;SHT31;56766;52.260;20.746;2022-08-19T15:33:50;31.72;46.20
69546;SHT31;56766;52.260;20.746;2022-08-19T15:36:17;31.65;46.42
69546;SHT31;56766;52.260;20.746;2022-08-19T15:38:44;31.59;46.59
69546;SHT31;56766;52.260;20.746;2022-08-19T15:41:18;31.51;46.40
69546;SHT31;56766;52.260;20.746;2022-08-19T15:44:04;31.44;46.74
69546;SHT31;56766;52.260;20.746;2022-08-19T15:46:38;31.35;47.14
69546;SHT31;56766;52.260;20.746;2022-08-19T15:49:10;31.31;47.64
69546;SHT31;56766;52.260;20.746;2022-08-19T15:51:41;31.30;47.73
69546;SHT31;56766;52.260;20.746;2022-08-19T15:54:15;31.28;47.83